sensor_id;sensor_type;location;lat;lon;timestamp;P1;durP1;ratioP1;P2;durP2;ratioP2
75087;SDS011;63664;44.868;40.600;2023-07-13T00:00:46;4.47;;;2.60;;
75087;SDS011;63664;44.868;40.600;2023-07-13T00:03:13;4.72;;;2.13;;
75087;SDS011;63664;44.868;40.600;2023-07-13T00:05:42;3.97;;;2.20;;
75087;SDS011;63664;44.868;40.600;2023-07-13T00:08:11;3.33;;;1.88;;
75087;SDS011;63664;44.868;40.600;2023-07-13T00:10:40;3.92;;;2.28;;
75087;SDS011;63664;44.868;40.600;2023-07-13T00:13:10;4.78;;;2.17;;
75087;SDS011;63664;44.868;40.600;2023-07-13T00:15:36;3.10;;;2.30;;
75087;SDS011;63664;44.868;40.600;2023-07-13T00:18:02;3.15;;;2.55;;
75087;SDS011;63664;44.868;40.600;2023-07-13T00:20:29;4.00;;;2.42;;
75087;SDS011;63664;44.868;40.600;2023-07-13T00:22:57;4.82;;;1.83;;
75087;SDS011;63664;44.868;40.600;2023-07-13T00:25:23;2.80;;;2.00;;
75087;SDS011;63664;44.868;40.600;2023-07-13T00:27:53;3.33;;;2.05;;
75087;SDS011;63664;44.868;40.600;2023-07-13T00:30:21;3.72;;;2.53;;
75087;SDS011;63664;44.868;40.600;2023-07-13T00:32:47;3.47;;;2.40;;
75087;SDS011;63664;44.868;40.600;2023-07-13T00:35:14;3.75;;;2.25;;
75087;SDS011;63664;44.868;40.600;2023-07-13T00:37:41;3.10;;;2.10;;
75087;SDS011;63664;44.868;40.600;2023-07-13T00:40:09;5.95;;;2.10;;
75087;SDS011;63664;44.868;40.600;2023-07-13T00:42:38;4.55;;;2.28;;
75087;SDS011;63664;44.868;40.600;2023-07-13T00:47:38;5.22;;;2.90;;
75087;SDS011;63664;44.868;40.600;2023-07-13T00:50:10;6.30;;;3.47;;
75087;SDS011;63664;44.868;40.600;2023-07-13T00:52:42;7.50;;;2.70;;
75087;SDS011;63664;44.868;40.600;2023-07-13T00:55:12;7.15;;;4.00;;
75087;SDS011;63664;44.868;40.600;2023-07-13T00:57:40;8.73;;;3.00;;
75087;SDS011;63664;44.868;40.600;2023-07-13T01:00:08;8.23;;;3.20;;
75087;SDS011;63664;44.868;40.600;2023-07-13T01:02:41;5.50;;;3.15;;
75087;SDS011;63664;44.868;40.600;2023-07-13T01:05:16;8.98;;;3.38;;
75087;SDS011;63664;44.868;40.600;2023-07-13T01:07:45;8.77;;;2.78;;
75087;SDS011;63664;44.868;40.600;2023-07-13T01:10:29;6.00;;;2.63;;
75087;SDS011;63664;44.868;40.600;2023-07-13T01:13:08;10.35;;;3.80;;
75087;SDS011;63664;44.868;40.600;2023-07-13T01:15:37;6.43;;;2.97;;
75087;SDS011;63664;44.868;40.600;2023-07-13T01:18:13;5.13;;;3.03;;
75087;SDS011;63664;44.868;40.600;2023-07-13T01:21:00;6.13;;;3.38;;
75087;SDS011;63664;44.868;40.600;2023-07-13T01:23:29;5.82;;;3.17;;
75087;SDS011;63664;44.868;40.600;2023-07-13T01:25:56;5.82;;;3.00;;
75087;SDS011;63664;44.868;40.600;2023-07-13T01:28:26;5.25;;;2.97;;
75087;SDS011;63664;44.868;40.600;2023-07-13T01:30:55;7.50;;;2.75;;
75087;SDS011;63664;44.868;40.600;2023-07-13T01:33:23;8.25;;;2.92;;
75087;SDS011;63664;44.868;40.600;2023-07-13T01:35:50;6.03;;;3.00;;
75087;SDS011;63664;44.868;40.600;2023-07-13T01:38:18;4.55;;;2.78;;
75087;SDS011;63664;44.868;40.600;2023-07-13T01:40:47;5.22;;;3.33;;
75087;SDS011;63664;44.868;40.600;2023-07-13T01:43:13;5.45;;;3.38;;
75087;SDS011;63664;44.868;40.600;2023-07-13T01:45:40;9.05;;;3.50;;
75087;SDS011;63664;44.868;40.600;2023-07-13T01:48:06;10.85;;;3.40;;
75087;SDS011;63664;44.868;40.600;2023-07-13T01:50:33;6.57;;;3.35;;
75087;SDS011;63664;44.868;40.600;2023-07-13T01:52:59;7.40;;;2.90;;
75087;SDS011;63664;44.868;40.600;2023-07-13T01:55:27;5.60;;;3.17;;
75087;SDS011;63664;44.868;40.600;2023-07-13T01:57:53;6.07;;;3.38;;
75087;SDS011;63664;44.868;40.600;2023-07-13T02:00:19;8.07;;;3.17;;
75087;SDS011;63664;44.868;40.600;2023-07-13T02:02:46;6.70;;;2.50;;
75087;SDS011;63664;44.868;40.600;2023-07-13T02:05:16;8.00;;;2.78;;
75087;SDS011;63664;44.868;40.600;2023-07-13T02:07:43;5.68;;;2.63;;
75087;SDS011;63664;44.868;40.600;2023-07-13T02:10:09;5.93;;;2.78;;
75087;SDS011;63664;44.868;40.600;2023-07-13T02:12:37;5.63;;;2.53;;
75087;SDS011;63664;44.868;40.600;2023-07-13T02:15:04;4.00;;;2.47;;
75087;SDS011;63664;44.868;40.600;2023-07-13T02:17:35;7.00;;;2.25;;
75087;SDS011;63664;44.868;40.600;2023-07-13T02:20:02;5.28;;;2.40;;
75087;SDS011;63664;44.868;40.600;2023-07-13T02:22:30;5.20;;;2.17;;
75087;SDS011;63664;44.868;40.600;2023-07-13T02:24:56;5.82;;;2.50;;
75087;SDS011;63664;44.868;40.600;2023-07-13T02:27:23;3.78;;;2.03;;
75087;SDS011;63664;44.868;40.600;2023-07-13T02:29:49;3.83;;;2.17;;
75087;SDS011;63664;44.868;40.600;2023-07-13T02:32:19;3.30;;;2.17;;
75087;SDS011;63664;44.868;40.600;2023-07-13T02:34:50;2.35;;;1.70;;
75087;SDS011;63664;44.868;40.600;2023-07-13T02:37:18;2.67;;;2.03;;
75087;SDS011;63664;44.868;40.600;2023-07-13T02:39:44;4.05;;;2.53;;
75087;SDS011;63664;44.868;40.600;2023-07-13T02:42:13;2.78;;;2.08;;
75087;SDS011;63664;44.868;40.600;2023-07-13T02:44:39;2.72;;;1.85;;
75087;SDS011;63664;44.868;40.600;2023-07-13T02:47:06;2.53;;;2.13;;
75087;SDS011;63664;44.868;40.600;2023-07-13T02:49:32;4.95;;;2.13;;
75087;SDS011;63664;44.868;40.600;2023-07-13T02:51:58;8.30;;;2.10;;
75087;SDS011;63664;44.868;40.600;2023-07-13T02:54:25;3.70;;;2.60;;
75087;SDS011;63664;44.868;40.600;2023-07-13T02:56:51;6.78;;;2.97;;
75087;SDS011;63664;44.868;40.600;2023-07-13T02:59:17;8.05;;;3.00;;
75087;SDS011;63664;44.868;40.600;2023-07-13T03:01:46;5.45;;;2.88;;
75087;SDS011;63664;44.868;40.600;2023-07-13T03:04:12;4.65;;;3.38;;
75087;SDS011;63664;44.868;40.600;2023-07-13T03:06:39;7.72;;;2.60;;
75087;SDS011;63664;44.868;40.600;2023-07-13T03:09:09;10.18;;;3.17;;
75087;SDS011;63664;44.868;40.600;2023-07-13T03:11:39;5.03;;;2.78;;
75087;SDS011;63664;44.868;40.600;2023-07-13T03:14:17;5.97;;;2.70;;
75087;SDS011;63664;44.868;40.600;2023-07-13T03:16:44;6.57;;;2.88;;
75087;SDS011;63664;44.868;40.600;2023-07-13T03:19:11;5.00;;;3.25;;
75087;SDS011;63664;44.868;40.600;2023-07-13T03:21:38;5.50;;;2.60;;
75087;SDS011;63664;44.868;40.600;2023-07-13T03:24:04;2.72;;;2.17;;
75087;SDS011;63664;44.868;40.600;2023-07-13T03:26:34;3.67;;;2.22;;
75087;SDS011;63664;44.868;40.600;2023-07-13T03:29:03;2.00;;;1.65;;
75087;SDS011;63664;44.868;40.600;2023-07-13T03:31:31;3.40;;;2.15;;
75087;SDS011;63664;44.868;40.600;2023-07-13T03:33:59;4.10;;;1.95;;
75087;SDS011;63664;44.868;40.600;2023-07-13T03:36:28;5.45;;;2.13;;
75087;SDS011;63664;44.868;40.600;2023-07-13T03:39:00;2.38;;;1.80;;
75087;SDS011;63664;44.868;40.600;2023-07-13T03:41:38;2.67;;;2.03;;
75087;SDS011;63664;44.868;40.600;2023-07-13T03:44:05;4.38;;;1.83;;
75087;SDS011;63664;44.868;40.600;2023-07-13T03:46:32;3.67;;;2.15;;
75087;SDS011;63664;44.868;40.600;2023-07-13T03:48:59;1.50;;;1.20;;
75087;SDS011;63664;44.868;40.600;2023-07-13T03:51:25;3.00;;;1.80;;
75087;SDS011;63664;44.868;40.600;2023-07-13T03:53:54;4.90;;;1.48;;
75087;SDS011;63664;44.868;40.600;2023-07-13T03:56:21;2.15;;;1.67;;
75087;SDS011;63664;44.868;40.600;2023-07-13T03:58:49;2.65;;;1.80;;
75087;SDS011;63664;44.868;40.600;2023-07-13T04:01:19;1.90;;;1.40;;
75087;SDS011;63664;44.868;40.600;2023-07-13T04:03:47;3.55;;;1.48;;
75087;SDS011;63664;44.868;40.600;2023-07-13T04:06:18;2.95;;;1.60;;
75087;SDS011;63664;44.868;40.600;2023-07-13T04:08:48;1.85;;;1.50;;
75087;SDS011;63664;44.868;40.600;2023-07-13T04:11:17;2.55;;;1.60;;
75087;SDS011;63664;44.868;40.600;2023-07-13T04:13:45;4.55;;;1.63;;
75087;SDS011;63664;44.868;40.600;2023-07-13T04:16:12;3.38;;;1.80;;
75087;SDS011;63664;44.868;40.600;2023-07-13T04:18:43;2.97;;;1.63;;
75087;SDS011;63664;44.868;40.600;2023-07-13T04:21:09;1.75;;;1.35;;
75087;SDS011;63664;44.868;40.600;2023-07-13T04:23:37;2.92;;;1.70;;
75087;SDS011;63664;44.868;40.600;2023-07-13T04:26:04;2.60;;;1.60;;
75087;SDS011;63664;44.868;40.600;2023-07-13T04:28:31;3.28;;;1.65;;
75087;SDS011;63664;44.868;40.600;2023-07-13T04:30:58;2.20;;;1.60;;
75087;SDS011;63664;44.868;40.600;2023-07-13T04:33:25;2.00;;;1.42;;
75087;SDS011;63664;44.868;40.600;2023-07-13T04:35:53;2.63;;;1.35;;
75087;SDS011;63664;44.868;40.600;2023-07-13T04:38:22;1.75;;;1.50;;
75087;SDS011;63664;44.868;40.600;2023-07-13T04:40:50;1.60;;;1.38;;
75087;SDS011;63664;44.868;40.600;2023-07-13T04:43:17;2.30;;;1.73;;
75087;SDS011;63664;44.868;40.600;2023-07-13T04:45:44;2.08;;;1.20;;
75087;SDS011;63664;44.868;40.600;2023-07-13T04:48:11;1.70;;;1.30;;
75087;SDS011;63664;44.868;40.600;2023-07-13T04:50:38;1.92;;;1.35;;
75087;SDS011;63664;44.868;40.600;2023-07-13T04:53:07;2.13;;;1.90;;
75087;SDS011;63664;44.868;40.600;2023-07-13T04:55:33;1.77;;;1.33;;
75087;SDS011;63664;44.868;40.600;2023-07-13T04:57:59;2.25;;;1.60;;
75087;SDS011;63664;44.868;40.600;2023-07-13T05:00:26;2.88;;;1.63;;
75087;SDS011;63664;44.868;40.600;2023-07-13T05:02:54;5.13;;;1.90;;
75087;SDS011;63664;44.868;40.600;2023-07-13T05:05:24;3.05;;;1.80;;
75087;SDS011;63664;44.868;40.600;2023-07-13T05:07:51;2.53;;;2.08;;
75087;SDS011;63664;44.868;40.600;2023-07-13T05:10:21;2.33;;;1.88;;
75087;SDS011;63664;44.868;40.600;2023-07-13T05:12:50;5.40;;;2.22;;
75087;SDS011;63664;44.868;40.600;2023-07-13T05:15:16;2.90;;;1.73;;
75087;SDS011;63664;44.868;40.600;2023-07-13T05:17:47;3.60;;;1.80;;
75087;SDS011;63664;44.868;40.600;2023-07-13T05:20:16;4.00;;;1.70;;
75087;SDS011;63664;44.868;40.600;2023-07-13T05:22:44;1.92;;;1.40;;
75087;SDS011;63664;44.868;40.600;2023-07-13T05:25:12;3.88;;;1.60;;
75087;SDS011;63664;44.868;40.600;2023-07-13T05:27:39;4.18;;;1.92;;
75087;SDS011;63664;44.868;40.600;2023-07-13T05:30:06;2.90;;;2.10;;
75087;SDS011;63664;44.868;40.600;2023-07-13T05:32:37;3.15;;;2.08;;
75087;SDS011;63664;44.868;40.600;2023-07-13T05:35:04;2.65;;;1.77;;
75087;SDS011;63664;44.868;40.600;2023-07-13T05:37:34;2.42;;;1.63;;
75087;SDS011;63664;44.868;40.600;2023-07-13T05:40:00;3.50;;;1.55;;
75087;SDS011;63664;44.868;40.600;2023-07-13T05:42:29;6.45;;;1.67;;
75087;SDS011;63664;44.868;40.600;2023-07-13T05:44:56;2.78;;;1.35;;
75087;SDS011;63664;44.868;40.600;2023-07-13T05:47:30;1.95;;;1.25;;
75087;SDS011;63664;44.868;40.600;2023-07-13T05:49:58;2.92;;;1.23;;
75087;SDS011;63664;44.868;40.600;2023-07-13T05:52:24;1.63;;;1.30;;
75087;SDS011;63664;44.868;40.600;2023-07-13T05:54:51;1.88;;;1.10;;
75087;SDS011;63664;44.868;40.600;2023-07-13T05:57:17;2.60;;;1.13;;
75087;SDS011;63664;44.868;40.600;2023-07-13T05:59:46;1.13;;;0.98;;
75087;SDS011;63664;44.868;40.600;2023-07-13T06:02:13;2.08;;;1.13;;
75087;SDS011;63664;44.868;40.600;2023-07-13T06:04:39;4.00;;;1.30;;
75087;SDS011;63664;44.868;40.600;2023-07-13T06:07:06;1.75;;;1.20;;
75087;SDS011;63664;44.868;40.600;2023-07-13T06:09:32;3.13;;;1.20;;
75087;SDS011;63664;44.868;40.600;2023-07-13T06:12:00;1.73;;;1.10;;
75087;SDS011;63664;44.868;40.600;2023-07-13T06:14:27;1.13;;;1.02;;
75087;SDS011;63664;44.868;40.600;2023-07-13T06:16:53;1.98;;;1.05;;
75087;SDS011;63664;44.868;40.600;2023-07-13T06:19:19;5.88;;;1.33;;
75087;SDS011;63664;44.868;40.600;2023-07-13T06:21:46;1.48;;;1.13;;
75087;SDS011;63664;44.868;40.600;2023-07-13T06:24:12;3.58;;;1.00;;
75087;SDS011;63664;44.868;40.600;2023-07-13T06:26:38;1.40;;;1.00;;
75087;SDS011;63664;44.868;40.600;2023-07-13T06:29:07;2.13;;;1.20;;
75087;SDS011;63664;44.868;40.600;2023-07-13T06:31:33;2.00;;;1.30;;
75087;SDS011;63664;44.868;40.600;2023-07-13T06:34:02;1.35;;;1.15;;
75087;SDS011;63664;44.868;40.600;2023-07-13T06:36:28;3.28;;;1.50;;
75087;SDS011;63664;44.868;40.600;2023-07-13T06:38:55;2.33;;;1.42;;
75087;SDS011;63664;44.868;40.600;2023-07-13T06:41:21;1.30;;;1.15;;
75087;SDS011;63664;44.868;40.600;2023-07-13T06:43:48;1.30;;;1.10;;
75087;SDS011;63664;44.868;40.600;2023-07-13T06:46:14;2.33;;;1.30;;
75087;SDS011;63664;44.868;40.600;2023-07-13T06:48:42;2.85;;;1.70;;
75087;SDS011;63664;44.868;40.600;2023-07-13T06:51:08;1.77;;;1.60;;
75087;SDS011;63664;44.868;40.600;2023-07-13T06:53:37;1.80;;;1.23;;
75087;SDS011;63664;44.868;40.600;2023-07-13T06:56:03;2.38;;;1.42;;
75087;SDS011;63664;44.868;40.600;2023-07-13T06:58:30;2.35;;;1.40;;
75087;SDS011;63664;44.868;40.600;2023-07-13T07:00:59;5.22;;;1.85;;
75087;SDS011;63664;44.868;40.600;2023-07-13T07:03:25;2.38;;;1.70;;
75087;SDS011;63664;44.868;40.600;2023-07-13T07:05:51;7.55;;;2.20;;
75087;SDS011;63664;44.868;40.600;2023-07-13T07:08:18;3.70;;;1.30;;
75087;SDS011;63664;44.868;40.600;2023-07-13T07:10:47;3.05;;;1.50;;
75087;SDS011;63664;44.868;40.600;2023-07-13T07:13:23;1.92;;;1.20;;
75087;SDS011;63664;44.868;40.600;2023-07-13T07:15:49;1.65;;;1.48;;
75087;SDS011;63664;44.868;40.600;2023-07-13T07:18:18;2.47;;;1.30;;
75087;SDS011;63664;44.868;40.600;2023-07-13T07:20:48;1.95;;;1.30;;
75087;SDS011;63664;44.868;40.600;2023-07-13T07:23:15;2.75;;;1.33;;
75087;SDS011;63664;44.868;40.600;2023-07-13T07:25:42;2.00;;;1.50;;
75087;SDS011;63664;44.868;40.600;2023-07-13T07:28:09;2.47;;;1.20;;
75087;SDS011;63664;44.868;40.600;2023-07-13T07:30:36;3.00;;;1.40;;
75087;SDS011;63664;44.868;40.600;2023-07-13T07:33:03;2.80;;;1.27;;
75087;SDS011;63664;44.868;40.600;2023-07-13T07:35:32;3.28;;;1.02;;
75087;SDS011;63664;44.868;40.600;2023-07-13T07:37:58;1.85;;;1.40;;
75087;SDS011;63664;44.868;40.600;2023-07-13T07:40:25;2.17;;;1.52;;
75087;SDS011;63664;44.868;40.600;2023-07-13T07:42:52;1.83;;;1.20;;
75087;SDS011;63664;44.868;40.600;2023-07-13T07:45:20;2.08;;;1.30;;
75087;SDS011;63664;44.868;40.600;2023-07-13T07:47:47;2.55;;;1.35;;
75087;SDS011;63664;44.868;40.600;2023-07-13T07:50:13;3.58;;;1.42;;
75087;SDS011;63664;44.868;40.600;2023-07-13T07:52:40;2.95;;;1.60;;
75087;SDS011;63664;44.868;40.600;2023-07-13T07:55:09;2.92;;;1.30;;
75087;SDS011;63664;44.868;40.600;2023-07-13T07:57:38;1.30;;;1.20;;
75087;SDS011;63664;44.868;40.600;2023-07-13T08:00:05;4.20;;;1.52;;
75087;SDS011;63664;44.868;40.600;2023-07-13T08:02:40;2.00;;;1.10;;
75087;SDS011;63664;44.868;40.600;2023-07-13T08:05:09;2.15;;;1.40;;
75087;SDS011;63664;44.868;40.600;2023-07-13T08:07:36;1.77;;;1.40;;
75087;SDS011;63664;44.868;40.600;2023-07-13T08:10:04;2.38;;;1.42;;
75087;SDS011;63664;44.868;40.600;2023-07-13T08:12:34;5.28;;;1.35;;
75087;SDS011;63664;44.868;40.600;2023-07-13T08:15:03;2.92;;;1.50;;
75087;SDS011;63664;44.868;40.600;2023-07-13T08:17:31;2.47;;;1.40;;
75087;SDS011;63664;44.868;40.600;2023-07-13T08:19:58;2.45;;;1.58;;
75087;SDS011;63664;44.868;40.600;2023-07-13T08:22:24;2.10;;;1.20;;
75087;SDS011;63664;44.868;40.600;2023-07-13T08:24:51;4.97;;;1.25;;
75087;SDS011;63664;44.868;40.600;2023-07-13T08:27:22;1.58;;;1.20;;
75087;SDS011;63664;44.868;40.600;2023-07-13T08:29:49;2.95;;;1.20;;
75087;SDS011;63664;44.868;40.600;2023-07-13T08:32:17;2.70;;;1.33;;
75087;SDS011;63664;44.868;40.600;2023-07-13T08:34:46;1.33;;;1.02;;
75087;SDS011;63664;44.868;40.600;2023-07-13T08:37:13;1.52;;;1.10;;
75087;SDS011;63664;44.868;40.600;2023-07-13T08:39:40;1.67;;;1.23;;
75087;SDS011;63664;44.868;40.600;2023-07-13T08:47:40;1.65;;;1.15;;
75087;SDS011;63664;44.868;40.600;2023-07-13T08:50:14;2.15;;;0.82;;
75087;SDS011;63664;44.868;40.600;2023-07-13T08:52:45;4.13;;;1.00;;
75087;SDS011;63664;44.868;40.600;2023-07-13T08:55:16;2.05;;;1.00;;
75087;SDS011;63664;44.868;40.600;2023-07-13T08:57:50;1.52;;;1.10;;
75087;SDS011;63664;44.868;40.600;2023-07-13T09:00:55;2.20;;;1.10;;
75087;SDS011;63664;44.868;40.600;2023-07-13T09:06:34;2.35;;;1.20;;
75087;SDS011;63664;44.868;40.600;2023-07-13T09:15:17;3.60;;;1.30;;
75087;SDS011;63664;44.868;40.600;2023-07-13T09:17:18;2.08;;;1.27;;
75087;SDS011;63664;44.868;40.600;2023-07-13T09:19:57;2.75;;;1.20;;
75087;SDS011;63664;44.868;40.600;2023-07-13T09:22:31;2.72;;;1.27;;
75087;SDS011;63664;44.868;40.600;2023-07-13T09:27:42;2.92;;;2.05;;
75087;SDS011;63664;44.868;40.600;2023-07-13T09:32:41;1.42;;;1.10;;
75087;SDS011;63664;44.868;40.600;2023-07-13T09:35:11;1.90;;;1.33;;
75087;SDS011;63664;44.868;40.600;2023-07-13T09:37:44;3.45;;;1.27;;
75087;SDS011;63664;44.868;40.600;2023-07-13T09:40:17;3.97;;;1.70;;
75087;SDS011;63664;44.868;40.600;2023-07-13T09:43:09;3.05;;;1.50;;
75087;SDS011;63664;44.868;40.600;2023-07-13T09:45:39;2.15;;;1.42;;
75087;SDS011;63664;44.868;40.600;2023-07-13T09:48:07;5.28;;;2.30;;
75087;SDS011;63664;44.868;40.600;2023-07-13T09:50:42;2.17;;;1.20;;
75087;SDS011;63664;44.868;40.600;2023-07-13T09:53:13;1.60;;;1.25;;
75087;SDS011;63664;44.868;40.600;2023-07-13T09:55:42;2.88;;;1.67;;
75087;SDS011;63664;44.868;40.600;2023-07-13T09:58:16;5.85;;;2.70;;
75087;SDS011;63664;44.868;40.600;2023-07-13T10:01:09;8.43;;;2.50;;
75087;SDS011;63664;44.868;40.600;2023-07-13T10:03:35;2.13;;;1.50;;
75087;SDS011;63664;44.868;40.600;2023-07-13T10:06:14;8.32;;;2.38;;
75087;SDS011;63664;44.868;40.600;2023-07-13T10:08:46;2.03;;;1.40;;
75087;SDS011;63664;44.868;40.600;2023-07-13T10:11:20;3.30;;;1.42;;
75087;SDS011;63664;44.868;40.600;2023-07-13T10:13:53;2.90;;;1.60;;
75087;SDS011;63664;44.868;40.600;2023-07-13T10:16:23;2.28;;;1.60;;
75087;SDS011;63664;44.868;40.600;2023-07-13T10:19:02;5.13;;;1.50;;
75087;SDS011;63664;44.868;40.600;2023-07-13T10:21:50;5.82;;;2.28;;
75087;SDS011;63664;44.868;40.600;2023-07-13T10:24:38;7.07;;;3.10;;
75087;SDS011;63664;44.868;40.600;2023-07-13T10:27:19;2.45;;;1.50;;
75087;SDS011;63664;44.868;40.600;2023-07-13T10:32:37;1.85;;;1.35;;
75087;SDS011;63664;44.868;40.600;2023-07-13T10:35:08;3.97;;;1.30;;
75087;SDS011;63664;44.868;40.600;2023-07-13T10:37:57;2.85;;;1.40;;
75087;SDS011;63664;44.868;40.600;2023-07-13T10:40:34;2.10;;;1.45;;
75087;SDS011;63664;44.868;40.600;2023-07-13T10:43:18;2.28;;;1.60;;
75087;SDS011;63664;44.868;40.600;2023-07-13T10:45:50;1.52;;;1.25;;
75087;SDS011;63664;44.868;40.600;2023-07-13T10:48:20;1.75;;;1.23;;
75087;SDS011;63664;44.868;40.600;2023-07-13T10:50:49;3.25;;;1.40;;
75087;SDS011;63664;44.868;40.600;2023-07-13T10:53:20;3.88;;;1.55;;
75087;SDS011;63664;44.868;40.600;2023-07-13T11:01:16;1.75;;;1.20;;
75087;SDS011;63664;44.868;40.600;2023-07-13T11:09:03;2.67;;;1.35;;
75087;SDS011;63664;44.868;40.600;2023-07-13T11:11:43;7.97;;;1.63;;
75087;SDS011;63664;44.868;40.600;2023-07-13T11:14:29;4.45;;;1.60;;
75087;SDS011;63664;44.868;40.600;2023-07-13T11:25:36;2.13;;;1.73;;
75087;SDS011;63664;44.868;40.600;2023-07-13T11:33:19;2.38;;;1.70;;
75087;SDS011;63664;44.868;40.600;2023-07-13T11:38:20;2.95;;;1.30;;
75087;SDS011;63664;44.868;40.600;2023-07-13T11:40:53;1.95;;;1.52;;
75087;SDS011;63664;44.868;40.600;2023-07-13T11:43:20;3.17;;;1.50;;
75087;SDS011;63664;44.868;40.600;2023-07-13T11:45:51;11.48;;;2.50;;
75087;SDS011;63664;44.868;40.600;2023-07-13T11:50:59;2.25;;;1.50;;
75087;SDS011;63664;44.868;40.600;2023-07-13T11:53:29;2.08;;;1.30;;
75087;SDS011;63664;44.868;40.600;2023-07-13T11:56:05;5.32;;;1.38;;
75087;SDS011;63664;44.868;40.600;2023-07-13T11:58:32;1.42;;;1.08;;
75087;SDS011;63664;44.868;40.600;2023-07-13T12:00:59;2.60;;;1.67;;
75087;SDS011;63664;44.868;40.600;2023-07-13T12:03:32;2.50;;;1.70;;
75087;SDS011;63664;44.868;40.600;2023-07-13T12:06:19;2.47;;;1.35;;
75087;SDS011;63664;44.868;40.600;2023-07-13T12:08:59;2.42;;;1.30;;
75087;SDS011;63664;44.868;40.600;2023-07-13T12:11:28;2.35;;;1.33;;
75087;SDS011;63664;44.868;40.600;2023-07-13T12:13:56;1.67;;;1.40;;
75087;SDS011;63664;44.868;40.600;2023-07-13T12:16:26;1.98;;;1.38;;
75087;SDS011;63664;44.868;40.600;2023-07-13T12:19:01;2.67;;;1.10;;
75087;SDS011;63664;44.868;40.600;2023-07-13T12:21:32;2.33;;;1.05;;
75087;SDS011;63664;44.868;40.600;2023-07-13T12:24:19;4.25;;;1.40;;
75087;SDS011;63664;44.868;40.600;2023-07-13T12:27:00;1.83;;;1.30;;
75087;SDS011;63664;44.868;40.600;2023-07-13T12:29:32;1.88;;;1.27;;
75087;SDS011;63664;44.868;40.600;2023-07-13T12:32:02;1.73;;;1.30;;
75087;SDS011;63664;44.868;40.600;2023-07-13T12:34:49;4.53;;;1.50;;
75087;SDS011;63664;44.868;40.600;2023-07-13T12:37:21;1.83;;;1.00;;
75087;SDS011;63664;44.868;40.600;2023-07-13T12:39:50;5.30;;;1.20;;
75087;SDS011;63664;44.868;40.600;2023-07-13T12:42:24;2.58;;;1.00;;
75087;SDS011;63664;44.868;40.600;2023-07-13T12:44:56;3.50;;;1.25;;
75087;SDS011;63664;44.868;40.600;2023-07-13T12:47:25;1.88;;;1.20;;
75087;SDS011;63664;44.868;40.600;2023-07-13T12:49:54;2.00;;;1.15;;
75087;SDS011;63664;44.868;40.600;2023-07-13T12:52:29;2.88;;;1.20;;
75087;SDS011;63664;44.868;40.600;2023-07-13T12:55:12;1.35;;;0.95;;
75087;SDS011;63664;44.868;40.600;2023-07-13T12:57:54;1.40;;;1.17;;
75087;SDS011;63664;44.868;40.600;2023-07-13T13:00:26;1.35;;;1.10;;
75087;SDS011;63664;44.868;40.600;2023-07-13T13:03:03;1.75;;;0.98;;
75087;SDS011;63664;44.868;40.600;2023-07-13T13:05:32;1.35;;;1.00;;
75087;SDS011;63664;44.868;40.600;2023-07-13T13:07:59;1.20;;;0.80;;
75087;SDS011;63664;44.868;40.600;2023-07-13T13:10:26;2.15;;;1.00;;
75087;SDS011;63664;44.868;40.600;2023-07-13T13:12:54;2.13;;;1.30;;
75087;SDS011;63664;44.868;40.600;2023-07-13T13:15:21;1.02;;;0.93;;
75087;SDS011;63664;44.868;40.600;2023-07-13T13:17:49;1.88;;;1.10;;
75087;SDS011;63664;44.868;40.600;2023-07-13T13:20:16;1.55;;;1.02;;
75087;SDS011;63664;44.868;40.600;2023-07-13T13:22:51;3.25;;;1.10;;
75087;SDS011;63664;44.868;40.600;2023-07-13T13:25:18;2.10;;;1.08;;
75087;SDS011;63664;44.868;40.600;2023-07-13T13:27:45;2.03;;;1.02;;
75087;SDS011;63664;44.868;40.600;2023-07-13T13:30:12;1.88;;;1.30;;
75087;SDS011;63664;44.868;40.600;2023-07-13T13:35:18;6.57;;;1.20;;
75087;SDS011;63664;44.868;40.600;2023-07-13T13:37:46;2.08;;;0.90;;
75087;SDS011;63664;44.868;40.600;2023-07-13T13:40:16;1.77;;;1.10;;
75087;SDS011;63664;44.868;40.600;2023-07-13T13:42:53;2.05;;;1.38;;
75087;SDS011;63664;44.868;40.600;2023-07-13T13:45:24;1.33;;;1.10;;
75087;SDS011;63664;44.868;40.600;2023-07-13T13:47:50;1.23;;;1.00;;
75087;SDS011;63664;44.868;40.600;2023-07-13T13:50:18;1.80;;;1.30;;
75087;SDS011;63664;44.868;40.600;2023-07-13T13:52:48;1.50;;;0.90;;
75087;SDS011;63664;44.868;40.600;2023-07-13T13:55:15;4.22;;;1.20;;
75087;SDS011;63664;44.868;40.600;2023-07-13T13:57:46;1.60;;;1.08;;
75087;SDS011;63664;44.868;40.600;2023-07-13T14:00:14;3.28;;;1.10;;
75087;SDS011;63664;44.868;40.600;2023-07-13T14:02:45;4.03;;;1.23;;
75087;SDS011;63664;44.868;40.600;2023-07-13T14:05:18;1.40;;;1.10;;
75087;SDS011;63664;44.868;40.600;2023-07-13T14:07:48;1.92;;;1.38;;
75087;SDS011;63664;44.868;40.600;2023-07-13T14:10:17;4.88;;;1.30;;
75087;SDS011;63664;44.868;40.600;2023-07-13T14:12:45;2.30;;;1.40;;
75087;SDS011;63664;44.868;40.600;2023-07-13T14:15:24;2.88;;;1.30;;
75087;SDS011;63664;44.868;40.600;2023-07-13T14:17:57;7.65;;;1.42;;
75087;SDS011;63664;44.868;40.600;2023-07-13T14:20:24;2.28;;;1.23;;
75087;SDS011;63664;44.868;40.600;2023-07-13T14:22:55;1.88;;;1.30;;
75087;SDS011;63664;44.868;40.600;2023-07-13T14:25:29;4.68;;;1.70;;
75087;SDS011;63664;44.868;40.600;2023-07-13T14:27:56;5.05;;;1.40;;
75087;SDS011;63664;44.868;40.600;2023-07-13T14:30:25;2.03;;;1.30;;
75087;SDS011;63664;44.868;40.600;2023-07-13T14:32:51;2.00;;;1.40;;
75087;SDS011;63664;44.868;40.600;2023-07-13T14:35:18;1.92;;;1.20;;
75087;SDS011;63664;44.868;40.600;2023-07-13T14:37:47;4.68;;;1.00;;
75087;SDS011;63664;44.868;40.600;2023-07-13T14:40:18;1.98;;;1.27;;
75087;SDS011;63664;44.868;40.600;2023-07-13T14:42:51;1.70;;;1.08;;
75087;SDS011;63664;44.868;40.600;2023-07-13T14:45:18;3.50;;;1.70;;
75087;SDS011;63664;44.868;40.600;2023-07-13T14:47:53;2.80;;;1.40;;
75087;SDS011;63664;44.868;40.600;2023-07-13T14:52:59;1.45;;;1.10;;
75087;SDS011;63664;44.868;40.600;2023-07-13T14:55:26;3.55;;;1.33;;
75087;SDS011;63664;44.868;40.600;2023-07-13T14:57:52;4.63;;;1.40;;
75087;SDS011;63664;44.868;40.600;2023-07-13T15:00:19;5.10;;;1.60;;
75087;SDS011;63664;44.868;40.600;2023-07-13T15:02:48;6.22;;;1.55;;
75087;SDS011;63664;44.868;40.600;2023-07-13T15:05:23;2.25;;;1.40;;
75087;SDS011;63664;44.868;40.600;2023-07-13T15:07:52;2.15;;;1.27;;
75087;SDS011;63664;44.868;40.600;2023-07-13T15:10:23;4.47;;;1.70;;
75087;SDS011;63664;44.868;40.600;2023-07-13T15:12:58;1.45;;;1.17;;
75087;SDS011;63664;44.868;40.600;2023-07-13T15:15:27;3.00;;;1.40;;
75087;SDS011;63664;44.868;40.600;2023-07-13T15:17:56;2.42;;;1.52;;
75087;SDS011;63664;44.868;40.600;2023-07-13T15:20:28;2.55;;;1.35;;
75087;SDS011;63664;44.868;40.600;2023-07-13T15:22:58;2.42;;;1.20;;
75087;SDS011;63664;44.868;40.600;2023-07-13T15:25:25;2.38;;;1.50;;
75087;SDS011;63664;44.868;40.600;2023-07-13T15:27:53;3.53;;;1.30;;
75087;SDS011;63664;44.868;40.600;2023-07-13T15:30:25;5.00;;;1.48;;
75087;SDS011;63664;44.868;40.600;2023-07-13T15:32:57;8.38;;;1.83;;
75087;SDS011;63664;44.868;40.600;2023-07-13T15:35:28;1.77;;;1.38;;
75087;SDS011;63664;44.868;40.600;2023-07-13T15:37:55;5.75;;;1.95;;
75087;SDS011;63664;44.868;40.600;2023-07-13T15:40:22;3.25;;;1.50;;
75087;SDS011;63664;44.868;40.600;2023-07-13T15:42:49;2.90;;;1.38;;
75087;SDS011;63664;44.868;40.600;2023-07-13T15:45:19;4.50;;;1.85;;
75087;SDS011;63664;44.868;40.600;2023-07-13T15:47:55;3.97;;;1.92;;